sensor_id;sensor_type;location;lat;lon;timestamp;P1;durP1;ratioP1;P2;durP2;ratioP2
14392;SDS011;7281;42.678;23.372;2022-11-11T00:00:49;13.80;;;4.30;;
14392;SDS011;7281;42.678;23.372;2022-11-11T00:03:35;2.80;;;2.53;;
14392;SDS011;7281;42.678;23.372;2022-11-11T00:06:20;6.10;;;5.50;;
14392;SDS011;7281;42.678;23.372;2022-11-11T00:09:07;12.83;;;5.47;;
14392;SDS011;7281;42.678;23.372;2022-11-11T00:11:54;4.33;;;3.93;;
14392;SDS011;7281;42.678;23.372;2022-11-11T00:14:40;5.47;;;4.90;;
14392;SDS011;7281;42.678;23.372;2022-11-11T00:17:25;8.00;;;5.87;;
14392;SDS011;7281;42.678;23.372;2022-11-11T00:20:31;2.57;;;2.30;;
14392;SDS011;7281;42.678;23.372;2022-11-11T00:23:35;4.73;;;4.43;;
14392;SDS011;7281;42.678;23.372;2022-11-11T00:26:39;4.97;;;4.23;;
14392;SDS011;7281;42.678;23.372;2022-11-11T00:29:25;3.90;;;3.53;;
14392;SDS011;7281;42.678;23.372;2022-11-11T00:32:10;7.67;;;5.57;;
14392;SDS011;7281;42.678;23.372;2022-11-11T00:35:08;2.77;;;2.57;;
14392;SDS011;7281;42.678;23.372;2022-11-11T00:38:13;7.10;;;5.80;;
14392;SDS011;7281;42.678;23.372;2022-11-11T00:41:18;4.50;;;3.87;;
14392;SDS011;7281;42.678;23.372;2022-11-11T00:44:05;8.23;;;4.17;;
14392;SDS011;7281;42.678;23.372;2022-11-11T00:46:50;5.70;;;3.60;;
14392;SDS011;7281;42.678;23.372;2022-11-11T00:49:54;2.37;;;1.63;;
14392;SDS011;7281;42.678;23.372;2022-11-11T00:52:58;3.70;;;2.37;;
14392;SDS011;7281;42.678;23.372;2022-11-11T00:55:44;3.53;;;3.23;;
14392;SDS011;7281;42.678;23.372;2022-11-11T00:58:29;19.47;;;3.77;;
14392;SDS011;7281;42.678;23.372;2022-11-11T01:01:14;5.20;;;4.00;;
14392;SDS011;7281;42.678;23.372;2022-11-11T01:04:01;4.37;;;3.97;;
14392;SDS011;7281;42.678;23.372;2022-11-11T01:06:47;5.60;;;5.13;;
14392;SDS011;7281;42.678;23.372;2022-11-11T01:09:32;2.97;;;2.77;;
14392;SDS011;7281;42.678;23.372;2022-11-11T01:12:18;4.53;;;4.10;;
14392;SDS011;7281;42.678;23.372;2022-11-11T01:15:03;9.90;;;5.93;;
14392;SDS011;7281;42.678;23.372;2022-11-11T01:17:49;6.07;;;3.13;;
14392;SDS011;7281;42.678;23.372;2022-11-11T01:20:34;4.60;;;3.53;;
14392;SDS011;7281;42.678;23.372;2022-11-11T01:23:21;9.00;;;4.27;;
14392;SDS011;7281;42.678;23.372;2022-11-11T01:26:12;8.77;;;6.77;;
14392;SDS011;7281;42.678;23.372;2022-11-11T01:28:59;6.17;;;4.53;;
14392;SDS011;7281;42.678;23.372;2022-11-11T01:31:45;6.37;;;5.80;;
14392;SDS011;7281;42.678;23.372;2022-11-11T01:34:30;2.40;;;2.23;;
14392;SDS011;7281;42.678;23.372;2022-11-11T01:37:16;7.13;;;6.37;;
14392;SDS011;7281;42.678;23.372;2022-11-11T01:40:02;4.67;;;4.10;;
14392;SDS011;7281;42.678;23.372;2022-11-11T01:42:51;8.63;;;6.00;;
14392;SDS011;7281;42.678;23.372;2022-11-11T01:48:34;11.03;;;7.03;;
14392;SDS011;7281;42.678;23.372;2022-11-11T01:51:47;5.17;;;3.97;;
14392;SDS011;7281;42.678;23.372;2022-11-11T02:00:22;3.33;;;3.03;;
14392;SDS011;7281;42.678;23.372;2022-11-11T02:03:09;5.10;;;4.67;;
14392;SDS011;7281;42.678;23.372;2022-11-11T02:05:56;3.97;;;3.67;;
14392;SDS011;7281;42.678;23.372;2022-11-11T02:08:41;4.37;;;3.83;;
14392;SDS011;7281;42.678;23.372;2022-11-11T02:11:28;5.27;;;4.73;;
14392;SDS011;7281;42.678;23.372;2022-11-11T02:14:38;6.20;;;5.60;;
14392;SDS011;7281;42.678;23.372;2022-11-11T02:17:29;5.17;;;2.77;;
14392;SDS011;7281;42.678;23.372;2022-11-11T02:20:21;4.97;;;4.57;;
14392;SDS011;7281;42.678;23.372;2022-11-11T02:25:57;3.23;;;2.97;;
14392;SDS011;7281;42.678;23.372;2022-11-11T02:28:46;9.20;;;5.47;;
14392;SDS011;7281;42.678;23.372;2022-11-11T02:31:32;16.77;;;5.13;;
14392;SDS011;7281;42.678;23.372;2022-11-11T02:34:18;4.93;;;4.37;;
14392;SDS011;7281;42.678;23.372;2022-11-11T02:37:05;5.87;;;3.93;;
14392;SDS011;7281;42.678;23.372;2022-11-11T02:39:53;6.37;;;3.50;;
14392;SDS011;7281;42.678;23.372;2022-11-11T02:42:49;4.27;;;3.17;;
14392;SDS011;7281;42.678;23.372;2022-11-11T02:45:35;3.93;;;3.63;;
14392;SDS011;7281;42.678;23.372;2022-11-11T02:48:20;5.27;;;4.80;;
14392;SDS011;7281;42.678;23.372;2022-11-11T02:51:07;3.03;;;2.83;;
14392;SDS011;7281;42.678;23.372;2022-11-11T02:53:52;2.60;;;2.27;;
14392;SDS011;7281;42.678;23.372;2022-11-11T02:56:42;1.80;;;1.70;;
14392;SDS011;7281;42.678;23.372;2022-11-11T02:59:47;9.63;;;3.17;;
14392;SDS011;7281;42.678;23.372;2022-11-11T03:02:32;4.90;;;4.30;;
14392;SDS011;7281;42.678;23.372;2022-11-11T03:05:18;1.93;;;1.67;;
14392;SDS011;7281;42.678;23.372;2022-11-11T03:08:04;2.77;;;2.57;;
14392;SDS011;7281;42.678;23.372;2022-11-11T03:10:50;4.07;;;3.57;;
14392;SDS011;7281;42.678;23.372;2022-11-11T03:13:36;1.80;;;1.70;;
14392;SDS011;7281;42.678;23.372;2022-11-11T03:16:21;5.27;;;4.27;;
14392;SDS011;7281;42.678;23.372;2022-11-11T03:19:42;1.57;;;1.47;;
14392;SDS011;7281;42.678;23.372;2022-11-11T03:22:28;2.90;;;2.67;;
14392;SDS011;7281;42.678;23.372;2022-11-11T03:25:36;2.40;;;1.90;;
14392;SDS011;7281;42.678;23.372;2022-11-11T03:28:23;2.27;;;2.07;;
14392;SDS011;7281;42.678;23.372;2022-11-11T03:31:09;5.60;;;5.13;;
14392;SDS011;7281;42.678;23.372;2022-11-11T03:33:55;7.83;;;4.80;;
14392;SDS011;7281;42.678;23.372;2022-11-11T03:37:01;10.57;;;6.50;;
14392;SDS011;7281;42.678;23.372;2022-11-11T03:40:06;8.77;;;4.10;;
14392;SDS011;7281;42.678;23.372;2022-11-11T03:42:52;9.40;;;5.07;;
14392;SDS011;7281;42.678;23.372;2022-11-11T03:45:37;2.87;;;2.63;;
14392;SDS011;7281;42.678;23.372;2022-11-11T03:48:24;5.30;;;4.72;;
14392;SDS011;7281;42.678;23.372;2022-11-11T03:51:10;4.30;;;3.90;;
14392;SDS011;7281;42.678;23.372;2022-11-11T03:53:55;30.63;;;4.90;;
14392;SDS011;7281;42.678;23.372;2022-11-11T03:56:41;8.07;;;4.53;;
14392;SDS011;7281;42.678;23.372;2022-11-11T03:59:26;1.80;;;1.63;;
14392;SDS011;7281;42.678;23.372;2022-11-11T04:02:12;6.30;;;4.20;;
14392;SDS011;7281;42.678;23.372;2022-11-11T04:05:16;3.70;;;2.23;;
14392;SDS011;7281;42.678;23.372;2022-11-11T04:08:20;2.17;;;2.07;;
14392;SDS011;7281;42.678;23.372;2022-11-11T04:11:32;6.30;;;1.90;;
14392;SDS011;7281;42.678;23.372;2022-11-11T04:14:20;7.10;;;2.77;;
14392;SDS011;7281;42.678;23.372;2022-11-11T04:17:24;1.90;;;1.80;;
14392;SDS011;7281;42.678;23.372;2022-11-11T04:20:10;6.43;;;4.63;;
14392;SDS011;7281;42.678;23.372;2022-11-11T04:23:14;2.03;;;1.87;;
14392;SDS011;7281;42.678;23.372;2022-11-11T04:25:59;4.00;;;3.60;;
14392;SDS011;7281;42.678;23.372;2022-11-11T04:28:45;2.23;;;1.97;;
14392;SDS011;7281;42.678;23.372;2022-11-11T04:31:49;4.33;;;3.07;;
14392;SDS011;7281;42.678;23.372;2022-11-11T04:34:54;1.90;;;1.73;;
14392;SDS011;7281;42.678;23.372;2022-11-11T04:37:44;2.93;;;2.73;;
14392;SDS011;7281;42.678;23.372;2022-11-11T04:40:33;2.63;;;2.40;;
14392;SDS011;7281;42.678;23.372;2022-11-11T04:43:37;2.97;;;2.77;;
14392;SDS011;7281;42.678;23.372;2022-11-11T04:46:41;6.77;;;3.60;;
14392;SDS011;7281;42.678;23.372;2022-11-11T04:49:26;5.27;;;4.70;;
14392;SDS011;7281;42.678;23.372;2022-11-11T04:52:12;1.70;;;1.60;;
14392;SDS011;7281;42.678;23.372;2022-11-11T04:55:16;3.33;;;2.07;;
14392;SDS011;7281;42.678;23.372;2022-11-11T04:58:21;3.70;;;3.33;;
14392;SDS011;7281;42.678;23.372;2022-11-11T05:01:08;2.73;;;2.20;;
14392;SDS011;7281;42.678;23.372;2022-11-11T05:03:54;0.77;;;0.77;;
14392;SDS011;7281;42.678;23.372;2022-11-11T05:06:39;0.33;;;0.33;;
14392;SDS011;7281;42.678;23.372;2022-11-11T05:09:44;2.23;;;1.10;;
14392;SDS011;7281;42.678;23.372;2022-11-11T05:12:29;2.33;;;2.23;;
14392;SDS011;7281;42.678;23.372;2022-11-11T05:15:15;1.63;;;1.53;;
14392;SDS011;7281;42.678;23.372;2022-11-11T05:18:21;0.97;;;0.87;;
14392;SDS011;7281;42.678;23.372;2022-11-11T05:21:25;1.33;;;1.23;;
14392;SDS011;7281;42.678;23.372;2022-11-11T05:24:14;2.07;;;1.93;;
14392;SDS011;7281;42.678;23.372;2022-11-11T05:27:18;4.63;;;2.37;;
14392;SDS011;7281;42.678;23.372;2022-11-11T05:30:06;0.57;;;0.57;;
14392;SDS011;7281;42.678;23.372;2022-11-11T05:32:54;2.17;;;2.07;;
14392;SDS011;7281;42.678;23.372;2022-11-11T05:35:39;1.27;;;1.17;;
14392;SDS011;7281;42.678;23.372;2022-11-11T05:38:26;4.50;;;4.10;;
14392;SDS011;7281;42.678;23.372;2022-11-11T05:41:11;2.83;;;2.17;;
14392;SDS011;7281;42.678;23.372;2022-11-11T05:43:57;14.10;;;10.13;;
14392;SDS011;7281;42.678;23.372;2022-11-11T05:46:42;24.07;;;18.37;;
14392;SDS011;7281;42.678;23.372;2022-11-11T05:49:28;4.30;;;3.47;;
14392;SDS011;7281;42.678;23.372;2022-11-11T05:52:14;4.13;;;3.73;;
14392;SDS011;7281;42.678;23.372;2022-11-11T05:55:01;6.93;;;4.50;;
14392;SDS011;7281;42.678;23.372;2022-11-11T05:57:46;3.77;;;2.50;;
14392;SDS011;7281;42.678;23.372;2022-11-11T06:00:31;1.00;;;1.00;;
14392;SDS011;7281;42.678;23.372;2022-11-11T06:03:17;0.50;;;0.50;;
14392;SDS011;7281;42.678;23.372;2022-11-11T06:06:02;1.17;;;0.93;;
14392;SDS011;7281;42.678;23.372;2022-11-11T06:08:47;1.53;;;1.47;;
14392;SDS011;7281;42.678;23.372;2022-11-11T06:11:33;2.83;;;2.63;;
14392;SDS011;7281;42.678;23.372;2022-11-11T06:14:19;11.90;;;10.67;;
14392;SDS011;7281;42.678;23.372;2022-11-11T06:17:04;4.50;;;3.70;;
14392;SDS011;7281;42.678;23.372;2022-11-11T06:19:50;4.93;;;4.43;;
14392;SDS011;7281;42.678;23.372;2022-11-11T06:22:35;27.07;;;4.47;;
14392;SDS011;7281;42.678;23.372;2022-11-11T06:25:43;2.13;;;1.50;;
14392;SDS011;7281;42.678;23.372;2022-11-11T06:28:49;3.70;;;3.10;;
14392;SDS011;7281;42.678;23.372;2022-11-11T06:31:36;2.03;;;1.33;;
14392;SDS011;7281;42.678;23.372;2022-11-11T06:34:21;4.27;;;2.90;;
14392;SDS011;7281;42.678;23.372;2022-11-11T06:37:07;1.97;;;1.87;;
14392;SDS011;7281;42.678;23.372;2022-11-11T06:39:52;2.17;;;1.77;;
14392;SDS011;7281;42.678;23.372;2022-11-11T06:42:37;1.00;;;0.93;;
14392;SDS011;7281;42.678;23.372;2022-11-11T06:45:24;1.20;;;1.17;;
14392;SDS011;7281;42.678;23.372;2022-11-11T06:48:11;4.37;;;1.37;;
14392;SDS011;7281;42.678;23.372;2022-11-11T06:51:03;1.10;;;1.10;;
14392;SDS011;7281;42.678;23.372;2022-11-11T06:53:50;0.40;;;0.40;;
14392;SDS011;7281;42.678;23.372;2022-11-11T06:56:36;1.03;;;0.93;;
14392;SDS011;7281;42.678;23.372;2022-11-11T06:59:21;2.87;;;1.33;;
14392;SDS011;7281;42.678;23.372;2022-11-11T07:02:13;0.43;;;0.43;;
14392;SDS011;7281;42.678;23.372;2022-11-11T07:04:58;0.87;;;0.87;;
14392;SDS011;7281;42.678;23.372;2022-11-11T07:07:45;3.77;;;2.07;;
14392;SDS011;7281;42.678;23.372;2022-11-11T07:10:31;0.90;;;0.90;;
14392;SDS011;7281;42.678;23.372;2022-11-11T07:13:18;0.60;;;0.60;;
14392;SDS011;7281;42.678;23.372;2022-11-11T07:16:03;0.30;;;0.30;;
14392;SDS011;7281;42.678;23.372;2022-11-11T07:18:49;0.57;;;0.57;;
14392;SDS011;7281;42.678;23.372;2022-11-11T07:21:35;0.40;;;0.40;;
14392;SDS011;7281;42.678;23.372;2022-11-11T07:24:20;7.40;;;1.40;;
14392;SDS011;7281;42.678;23.372;2022-11-11T07:27:05;2.63;;;1.67;;
14392;SDS011;7281;42.678;23.372;2022-11-11T07:29:51;0.33;;;0.33;;
14392;SDS011;7281;42.678;23.372;2022-11-11T07:32:42;1.43;;;1.33;;
14392;SDS011;7281;42.678;23.372;2022-11-11T07:35:30;3.20;;;2.00;;
14392;SDS011;7281;42.678;23.372;2022-11-11T07:38:15;2.83;;;2.43;;
14392;SDS011;7281;42.678;23.372;2022-11-11T07:41:00;0.30;;;0.30;;
14392;SDS011;7281;42.678;23.372;2022-11-11T07:43:46;1.83;;;1.50;;
14392;SDS011;7281;42.678;23.372;2022-11-11T07:46:32;0.57;;;0.57;;
14392;SDS011;7281;42.678;23.372;2022-11-11T07:49:17;0.80;;;0.57;;
14392;SDS011;7281;42.678;23.372;2022-11-11T07:52:03;0.50;;;0.50;;
14392;SDS011;7281;42.678;23.372;2022-11-11T07:54:49;1.13;;;1.03;;
14392;SDS011;7281;42.678;23.372;2022-11-11T07:57:34;1.50;;;1.23;;
14392;SDS011;7281;42.678;23.372;2022-11-11T08:00:20;3.27;;;2.97;;
14392;SDS011;7281;42.678;23.372;2022-11-11T08:03:06;1.37;;;1.37;;
14392;SDS011;7281;42.678;23.372;2022-11-11T08:05:54;1.23;;;1.13;;
14392;SDS011;7281;42.678;23.372;2022-11-11T08:08:40;0.67;;;0.67;;
14392;SDS011;7281;42.678;23.372;2022-11-11T08:11:26;1.70;;;1.60;;
14392;SDS011;7281;42.678;23.372;2022-11-11T08:14:29;1.17;;;1.13;;
14392;SDS011;7281;42.678;23.372;2022-11-11T08:17:15;2.27;;;2.17;;
14392;SDS011;7281;42.678;23.372;2022-11-11T08:20:00;1.70;;;0.67;;
14392;SDS011;7281;42.678;23.372;2022-11-11T08:22:46;2.57;;;1.07;;
14392;SDS011;7281;42.678;23.372;2022-11-11T08:25:51;0.37;;;0.37;;
14392;SDS011;7281;42.678;23.372;2022-11-11T08:28:37;0.27;;;0.27;;
14392;SDS011;7281;42.678;23.372;2022-11-11T08:31:22;0.70;;;0.70;;
14392;SDS011;7281;42.678;23.372;2022-11-11T08:34:07;6.80;;;3.60;;
14392;SDS011;7281;42.678;23.372;2022-11-11T08:36:53;0.77;;;0.77;;
14392;SDS011;7281;42.678;23.372;2022-11-11T08:39:38;0.40;;;0.40;;
14392;SDS011;7281;42.678;23.372;2022-11-11T08:42:24;0.43;;;0.43;;
14392;SDS011;7281;42.678;23.372;2022-11-11T08:45:09;2.47;;;1.60;;
14392;SDS011;7281;42.678;23.372;2022-11-11T08:47:54;0.20;;;0.20;;
14392;SDS011;7281;42.678;23.372;2022-11-11T08:50:40;0.63;;;0.63;;
14392;SDS011;7281;42.678;23.372;2022-11-11T08:53:26;0.53;;;0.53;;
14392;SDS011;7281;42.678;23.372;2022-11-11T08:56:11;0.27;;;0.27;;
14392;SDS011;7281;42.678;23.372;2022-11-11T08:58:57;0.83;;;0.83;;
14392;SDS011;7281;42.678;23.372;2022-11-11T09:01:43;3.07;;;2.10;;
14392;SDS011;7281;42.678;23.372;2022-11-11T09:04:28;0.57;;;0.57;;
14392;SDS011;7281;42.678;23.372;2022-11-11T09:07:33;0.67;;;0.67;;
14392;SDS011;7281;42.678;23.372;2022-11-11T09:10:18;0.33;;;0.33;;
14392;SDS011;7281;42.678;23.372;2022-11-11T09:13:04;1.30;;;1.27;;
14392;SDS011;7281;42.678;23.372;2022-11-11T09:15:51;1.33;;;0.70;;
14392;SDS011;7281;42.678;23.372;2022-11-11T09:18:38;0.93;;;0.73;;
14392;SDS011;7281;42.678;23.372;2022-11-11T09:21:24;0.70;;;0.70;;
14392;SDS011;7281;42.678;23.372;2022-11-11T09:24:09;2.77;;;1.57;;
14392;SDS011;7281;42.678;23.372;2022-11-11T09:26:55;2.87;;;0.87;;
14392;SDS011;7281;42.678;23.372;2022-11-11T09:29:41;0.40;;;0.40;;
14392;SDS011;7281;42.678;23.372;2022-11-11T09:32:26;0.40;;;0.40;;
14392;SDS011;7281;42.678;23.372;2022-11-11T09:35:11;3.13;;;2.20;;
14392;SDS011;7281;42.678;23.372;2022-11-11T09:38:00;3.33;;;1.77;;
14392;SDS011;7281;42.678;23.372;2022-11-11T09:41:01;0.37;;;0.37;;
14392;SDS011;7281;42.678;23.372;2022-11-11T09:43:59;0.20;;;0.20;;
14392;SDS011;7281;42.678;23.372;2022-11-11T09:49:43;0.00;;;0.00;;
14392;SDS011;7281;42.678;23.372;2022-11-11T09:52:37;0.00;;;0.00;;
14392;SDS011;7281;42.678;23.372;2022-11-11T10:01:25;0.30;;;0.30;;
14392;SDS011;7281;42.678;23.372;2022-11-11T10:04:34;0.90;;;0.90;;
14392;SDS011;7281;42.678;23.372;2022-11-11T10:07:30;2.33;;;0.67;;
14392;SDS011;7281;42.678;23.372;2022-11-11T10:10:22;0.77;;;0.67;;
14392;SDS011;7281;42.678;23.372;2022-11-11T10:13:19;1.53;;;1.43;;
14392;SDS011;7281;42.678;23.372;2022-11-11T10:16:23;1.90;;;1.33;;
14392;SDS011;7281;42.678;23.372;2022-11-11T10:19:28;1.67;;;0.60;;
14392;SDS011;7281;42.678;23.372;2022-11-11T10:22:21;0.20;;;0.20;;
14392;SDS011;7281;42.678;23.372;2022-11-11T10:25:23;0.07;;;0.07;;
14392;SDS011;7281;42.678;23.372;2022-11-11T10:28:12;0.40;;;0.40;;
14392;SDS011;7281;42.678;23.372;2022-11-11T10:31:02;0.20;;;0.20;;
14392;SDS011;7281;42.678;23.372;2022-11-11T10:36:50;0.87;;;0.50;;
14392;SDS011;7281;42.678;23.372;2022-11-11T10:39:49;0.33;;;0.33;;
14392;SDS011;7281;42.678;23.372;2022-11-11T10:42:36;0.60;;;0.60;;
14392;SDS011;7281;42.678;23.372;2022-11-11T10:48:28;0.33;;;0.33;;
14392;SDS011;7281;42.678;23.372;2022-11-11T10:51:29;0.20;;;0.20;;
14392;SDS011;7281;42.678;23.372;2022-11-11T10:54:20;0.10;;;0.10;;
14392;SDS011;7281;42.678;23.372;2022-11-11T10:57:36;0.27;;;0.27;;
14392;SDS011;7281;42.678;23.372;2022-11-11T11:00:29;2.43;;;0.77;;
14392;SDS011;7281;42.678;23.372;2022-11-11T11:03:26;0.17;;;0.17;;
14392;SDS011;7281;42.678;23.372;2022-11-11T11:06:21;0.20;;;0.20;;
14392;SDS011;7281;42.678;23.372;2022-11-11T11:09:21;0.10;;;0.10;;
14392;SDS011;7281;42.678;23.372;2022-11-11T11:12:30;0.40;;;0.40;;
14392;SDS011;7281;42.678;23.372;2022-11-11T11:15:22;0.57;;;0.57;;
14392;SDS011;7281;42.678;23.372;2022-11-11T11:18:11;1.17;;;1.07;;
14392;SDS011;7281;42.678;23.372;2022-11-11T11:21:02;1.03;;;1.00;;
14392;SDS011;7281;42.678;23.372;2022-11-11T11:23:50;1.33;;;1.23;;
14392;SDS011;7281;42.678;23.372;2022-11-11T11:26:45;1.60;;;1.50;;
14392;SDS011;7281;42.678;23.372;2022-11-11T11:29:37;0.87;;;0.70;;
14392;SDS011;7281;42.678;23.372;2022-11-11T11:32:27;0.63;;;0.63;;
14392;SDS011;7281;42.678;23.372;2022-11-11T11:38:38;0.10;;;0.10;;
14392;SDS011;7281;42.678;23.372;2022-11-11T11:41:44;0.30;;;0.30;;
14392;SDS011;7281;42.678;23.372;2022-11-11T11:44:39;6.73;;;1.77;;
14392;SDS011;7281;42.678;23.372;2022-11-11T11:47:34;0.10;;;0.10;;
14392;SDS011;7281;42.678;23.372;2022-11-11T11:56:47;0.93;;;0.70;;
14392;SDS011;7281;42.678;23.372;2022-11-11T12:17:32;0.27;;;0.27;;
14392;SDS011;7281;42.678;23.372;2022-11-11T12:20:28;0.30;;;0.30;;
14392;SDS011;7281;42.678;23.372;2022-11-11T12:23:37;0.30;;;0.30;;
14392;SDS011;7281;42.678;23.372;2022-11-11T12:26:37;0.20;;;0.20;;
14392;SDS011;7281;42.678;23.372;2022-11-11T12:41:28;0.53;;;0.53;;
14392;SDS011;7281;42.678;23.372;2022-11-11T12:44:53;0.20;;;0.20;;
14392;SDS011;7281;42.678;23.372;2022-11-11T12:57:37;0.37;;;0.33;;
14392;SDS011;7281;42.678;23.372;2022-11-11T13:07:47;0.60;;;0.60;;
14392;SDS011;7281;42.678;23.372;2022-11-11T13:16:26;0.33;;;0.33;;
14392;SDS011;7281;42.678;23.372;2022-11-11T13:25:14;0.20;;;0.20;;
14392;SDS011;7281;42.678;23.372;2022-11-11T13:28:07;1.70;;;0.90;;
14392;SDS011;7281;42.678;23.372;2022-11-11T13:34:14;0.23;;;0.23;;
14392;SDS011;7281;42.678;23.372;2022-11-11T13:37:01;0.93;;;0.70;;
14392;SDS011;7281;42.678;23.372;2022-11-11T13:39:48;0.50;;;0.50;;
14392;SDS011;7281;42.678;23.372;2022-11-11T13:42:45;0.13;;;0.13;;
14392;SDS011;7281;42.678;23.372;2022-11-11T13:45:36;0.30;;;0.30;;
14392;SDS011;7281;42.678;23.372;2022-11-11T13:48:38;0.67;;;0.67;;
14392;SDS011;7281;42.678;23.372;2022-11-11T13:51:40;0.77;;;0.77;;
14392;SDS011;7281;42.678;23.372;2022-11-11T13:54:40;0.27;;;0.27;;
14392;SDS011;7281;42.678;23.372;2022-11-11T13:57:32;8.23;;;1.03;;
14392;SDS011;7281;42.678;23.372;2022-11-11T14:09:00;1.93;;;0.43;;
14392;SDS011;7281;42.678;23.372;2022-11-11T14:11:46;0.70;;;0.70;;
14392;SDS011;7281;42.678;23.372;2022-11-11T14:17:20;0.30;;;0.30;;
14392;SDS011;7281;42.678;23.372;2022-11-11T14:23:25;0.47;;;0.47;;
14392;SDS011;7281;42.678;23.372;2022-11-11T14:26:25;5.23;;;1.13;;
14392;SDS011;7281;42.678;23.372;2022-11-11T14:29:16;0.47;;;0.40;;
14392;SDS011;7281;42.678;23.372;2022-11-11T14:32:18;0.67;;;0.67;;
14392;SDS011;7281;42.678;23.372;2022-11-11T14:41:51;0.27;;;0.27;;
14392;SDS011;7281;42.678;23.372;2022-11-11T14:44:39;2.23;;;0.93;;
14392;SDS011;7281;42.678;23.372;2022-11-11T14:47:41;4.03;;;1.77;;
14392;SDS011;7281;42.678;23.372;2022-11-11T14:53:35;0.50;;;0.50;;
14392;SDS011;7281;42.678;23.372;2022-11-11T14:56:22;0.90;;;0.90;;
14392;SDS011;7281;42.678;23.372;2022-11-11T14:59:11;0.60;;;0.60;;
14392;SDS011;7281;42.678;23.372;2022-11-11T15:02:02;0.10;;;0.10;;
14392;SDS011;7281;42.678;23.372;2022-11-11T15:04:49;2.27;;;0.43;;
14392;SDS011;7281;42.678;23.372;2022-11-11T15:26:21;3.70;;;0.63;;
14392;SDS011;7281;42.678;23.372;2022-11-11T15:38:08;0.30;;;0.30;;
14392;SDS011;7281;42.678;23.372;2022-11-11T15:40:57;0.20;;;0.20;;
14392;SDS011;7281;42.678;23.372;2022-11-11T15:43:44;3.03;;;0.90;;
14392;SDS011;7281;42.678;23.372;2022-11-11T15:46:31;1.53;;;1.43;;
14392;SDS011;7281;42.678;23.372;2022-11-11T15:49:37;0.40;;;0.40;;
14392;SDS011;7281;42.678;23.372;2022-11-11T15:52:30;0.40;;;0.40;;
14392;SDS011;7281;42.678;23.372;2022-11-11T15:55:21;0.50;;;0.50;;
14392;SDS011;7281;42.678;23.372;2022-11-11T15:58:16;0.23;;;0.23;;
14392;SDS011;7281;42.678;23.372;2022-11-11T16:01:09;0.70;;;0.70;;
14392;SDS011;7281;42.678;23.372;2022-11-11T16:03:56;0.87;;;0.87;;
14392;SDS011;7281;42.678;23.372;2022-11-11T16:06:42;1.17;;;1.07;;
14392;SDS011;7281;42.678;23.372;2022-11-11T16:09:29;0.27;;;0.27;;
14392;SDS011;7281;42.678;23.372;2022-11-11T16:12:37;0.90;;;0.90;;
14392;SDS011;7281;42.678;23.372;2022-11-11T16:15:27;3.23;;;1.33;;
14392;SDS011;7281;42.678;23.372;2022-11-11T16:18:30;0.97;;;0.90;;
14392;SDS011;7281;42.678;23.372;2022-11-11T16:27:20;0.43;;;0.37;;
14392;SDS011;7281;42.678;23.372;2022-11-11T16:30:28;0.17;;;0.17;;
14392;SDS011;7281;42.678;23.372;2022-11-11T16:33:18;0.03;;;0.03;;
14392;SDS011;7281;42.678;23.372;2022-11-11T16:36:07;0.40;;;0.40;;
14392;SDS011;7281;42.678;23.372;2022-11-11T16:38:54;0.50;;;0.43;;
14392;SDS011;7281;42.678;23.372;2022-11-11T16:41:40;0.20;;;0.20;;
14392;SDS011;7281;42.678;23.372;2022-11-11T16:50:26;1.33;;;1.23;;
14392;SDS011;7281;42.678;23.372;2022-11-11T16:53:22;1.03;;;0.93;;
14392;SDS011;7281;42.678;23.372;2022-11-11T16:56:13;2.63;;;2.47;;
14392;SDS011;7281;42.678;23.372;2022-11-11T16:59:05;1.43;;;1.33;;
14392;SDS011;7281;42.678;23.372;2022-11-11T17:01:55;1.07;;;1.00;;
14392;SDS011;7281;42.678;23.372;2022-11-11T17:04:48;0.70;;;0.50;;
14392;SDS011;7281;42.678;23.372;2022-11-11T17:07:39;0.50;;;0.43;;
14392;SDS011;7281;42.678;23.372;2022-11-11T17:10:25;0.57;;;0.57;;
14392;SDS011;7281;42.678;23.372;2022-11-11T17:13:14;0.60;;;0.60;;
14392;SDS011;7281;42.678;23.372;2022-11-11T17:16:00;0.93;;;0.93;;
14392;SDS011;7281;42.678;23.372;2022-11-11T17:18:48;0.60;;;0.60;;
14392;SDS011;7281;42.678;23.372;2022-11-11T17:21:33;0.53;;;0.53;;
14392;SDS011;7281;42.678;23.372;2022-11-11T17:24:19;2.97;;;2.10;;
14392;SDS011;7281;42.678;23.372;2022-11-11T17:27:04;0.90;;;0.90;;
14392;SDS011;7281;42.678;23.372;2022-11-11T17:29:50;0.60;;;0.60;;
14392;SDS011;7281;42.678;23.372;2022-11-11T17:32:35;0.50;;;0.50;;
14392;SDS011;7281;42.678;23.372;2022-11-11T17:35:21;0.60;;;0.60;;
14392;SDS011;7281;42.678;23.372;2022-11-11T17:38:06;0.60;;;0.60;;
14392;SDS011;7281;42.678;23.372;2022-11-11T17:40:52;0.60;;;0.60;;
14392;SDS011;7281;42.678;23.372;2022-11-11T17:43:37;1.70;;;1.40;;
14392;SDS011;7281;42.678;23.372;2022-11-11T17:46:23;2.63;;;1.73;;
14392;SDS011;7281;42.678;23.372;2022-11-11T17:49:09;0.80;;;0.80;;
14392;SDS011;7281;42.678;23.372;2022-11-11T17:52:00;0.30;;;0.30;;
14392;SDS011;7281;42.678;23.372;2022-11-11T17:54:46;2.00;;;1.50;;
14392;SDS011;7281;42.678;23.372;2022-11-11T17:57:31;0.50;;;0.50;;
14392;SDS011;7281;42.678;23.372;2022-11-11T18:00:17;1.73;;;1.63;;
14392;SDS011;7281;42.678;23.372;2022-11-11T18:03:03;1.30;;;1.23;;
14392;SDS011;7281;42.678;23.372;2022-11-11T18:05:52;0.47;;;0.47;;
14392;SDS011;7281;42.678;23.372;2022-11-11T18:08:39;1.03;;;0.97;;
14392;SDS011;7281;42.678;23.372;2022-11-11T18:11:25;3.30;;;2.20;;
14392;SDS011;7281;42.678;23.372;2022-11-11T18:14:10;1.17;;;1.07;;
14392;SDS011;7281;42.678;23.372;2022-11-11T18:16:56;1.27;;;1.13;;
14392;SDS011;7281;42.678;23.372;2022-11-11T18:19:41;1.17;;;0.93;;
14392;SDS011;7281;42.678;23.372;2022-11-11T18:22:26;0.20;;;0.20;;
14392;SDS011;7281;42.678;23.372;2022-11-11T18:25:11;2.97;;;1.77;;
14392;SDS011;7281;42.678;23.372;2022-11-11T18:27:58;8.13;;;7.33;;
14392;SDS011;7281;42.678;23.372;2022-11-11T18:30:44;2.63;;;1.57;;
14392;SDS011;7281;42.678;23.372;2022-11-11T18:33:30;0.33;;;0.33;;
14392;SDS011;7281;42.678;23.372;2022-11-11T18:36:17;2.93;;;2.20;;
14392;SDS011;7281;42.678;23.372;2022-11-11T18:39:07;1.03;;;0.77;;
14392;SDS011;7281;42.678;23.372;2022-11-11T18:41:52;0.50;;;0.50;;
14392;SDS011;7281;42.678;23.372;2022-11-11T18:44:38;0.97;;;0.90;;
14392;SDS011;7281;42.678;23.372;2022-11-11T18:47:23;4.37;;;2.03;;
14392;SDS011;7281;42.678;23.372;2022-11-11T18:50:09;1.97;;;1.33;;
14392;SDS011;7281;42.678;23.372;2022-11-11T18:52:54;4.53;;;2.43;;
14392;SDS011;7281;42.678;23.372;2022-11-11T18:55:40;1.07;;;0.97;;
14392;SDS011;7281;42.678;23.372;2022-11-11T18:58:26;0.87;;;0.87;;
14392;SDS011;7281;42.678;23.372;2022-11-11T19:01:12;2.67;;;2.47;;
14392;SDS011;7281;42.678;23.372;2022-11-11T19:04:07;1.90;;;1.80;;
14392;SDS011;7281;42.678;23.372;2022-11-11T19:06:55;5.03;;;2.13;;
14392;SDS011;7281;42.678;23.372;2022-11-11T19:09:41;0.53;;;0.53;;
14392;SDS011;7281;42.678;23.372;2022-11-11T19:12:26;1.20;;;0.50;;
14392;SDS011;7281;42.678;23.372;2022-11-11T19:15:12;1.40;;;1.30;;
14392;SDS011;7281;42.678;23.372;2022-11-11T19:17:58;1.27;;;1.17;;
14392;SDS011;7281;42.678;23.372;2022-11-11T19:20:43;0.60;;;0.57;;
14392;SDS011;7281;42.678;23.372;2022-11-11T19:23:29;0.33;;;0.33;;
14392;SDS011;7281;42.678;23.372;2022-11-11T19:26:15;1.60;;;1.27;;
14392;SDS011;7281;42.678;23.372;2022-11-11T19:29:03;5.40;;;2.40;;
14392;SDS011;7281;42.678;23.372;2022-11-11T19:31:54;0.20;;;0.20;;
14392;SDS011;7281;42.678;23.372;2022-11-11T19:34:39;1.23;;;1.23;;
14392;SDS011;7281;42.678;23.372;2022-11-11T19:37:25;3.40;;;1.80;;
14392;SDS011;7281;42.678;23.372;2022-11-11T19:40:10;2.23;;;2.13;;
14392;SDS011;7281;42.678;23.372;2022-11-11T19:42:56;0.50;;;0.50;;
14392;SDS011;7281;42.678;23.372;2022-11-11T19:45:41;0.67;;;0.67;;
14392;SDS011;7281;42.678;23.372;2022-11-11T19:48:27;0.33;;;0.33;;